Íslenskir flugvellir

Veldu flugvelli í þeirri röð sem þeir eiga að birtast og styddu á hnappinn

Uppfært síðast 24.08.2019 - kl. 18:21

SIGMET síðustu 6 klst.

Engin SIGMET skeyti bárust síðustu 6 klst.

Vestmannaeyjar

METAR síðustu 3 klst

TímiSkeyti
2019-08-24 18.00METAR BIVM 241800Z 28010KT CAVOK 12/11 Q1011
2019-08-24 17.00METAR BIVM 241700Z 29016KT CAVOK 12/11 Q1011
2019-08-24 16.00METAR BIVM 241600Z 29016KT CAVOK 13/11 Q1011

TAF

TAFBIVM2019-08-24 15.55Z24170228015KT 9999 FEW020 SCT040

Allur vindur er réttvísandi bæði í Metar og frá sjálfvirkum veðurstöðvum




Aðrir tengdir vefir



Þetta vefsvæði byggir á Eplica